Goleta, California
Current Conditions -  °F | °C
As of 4:53 PM on Tuesday 25 Nov 2014 (Local Time) from KSBA Reporting Station
Clear Clear  
Wind Chill: 66°   Ceiling: Unl
Heat Index: 66°   Visibility: 10mi
Dew Point: 48°   Wind: 9mph
Humidity: 52%   Direction: 260°W
Pressure: 30.26"   Gusts: NA
Location:  34.44°N, 119.83°W
Report Text: KSBA 260053Z 26008KT 10SM CLR 19/09 A3026 RMK AO2 SLP246 T01890089
Loading
Personal Weather Stations






























Interactive Weather Map New forecast layout! Learn more

10-Day Weather Forecast

Advertisements
Track Severe Weather on mobile